sensor_id;sensor_type;location;lat;lon;timestamp;temperature;humidity
7331;DHT22;3706;49.198;7.064;2024-01-30T00:00:51;0.50;99.90
7331;DHT22;3706;49.198;7.064;2024-01-30T00:03:18;0.50;99.90
7331;DHT22;3706;49.198;7.064;2024-01-30T00:05:45;0.50;99.90
7331;DHT22;3706;49.198;7.064;2024-01-30T00:08:12;0.50;99.90
7331;DHT22;3706;49.198;7.064;2024-01-30T00:10:39;0.50;99.90
7331;DHT22;3706;49.198;7.064;2024-01-30T00:13:08;0.50;99.90
7331;DHT22;3706;49.198;7.064;2024-01-30T00:15:35;0.70;99.90
7331;DHT22;3706;49.198;7.064;2024-01-30T00:18:02;0.50;99.90
7331;DHT22;3706;49.198;7.064;2024-01-30T00:20:29;0.40;99.90
7331;DHT22;3706;49.198;7.064;2024-01-30T00:22:56;0.40;99.90
7331;DHT22;3706;49.198;7.064;2024-01-30T00:25:23;0.40;99.90
7331;DHT22;3706;49.198;7.064;2024-01-30T00:27:50;0.40;99.90
7331;DHT22;3706;49.198;7.064;2024-01-30T00:30:19;0.50;99.90
7331;DHT22;3706;49.198;7.064;2024-01-30T00:32:46;0.40;99.90
7331;DHT22;3706;49.198;7.064;2024-01-30T00:35:13;0.40;99.90
7331;DHT22;3706;49.198;7.064;2024-01-30T00:37:41;0.40;99.90
7331;DHT22;3706;49.198;7.064;2024-01-30T00:40:08;0.50;99.90
7331;DHT22;3706;49.198;7.064;2024-01-30T00:42:41;0.40;99.90
7331;DHT22;3706;49.198;7.064;2024-01-30T00:45:12;0.30;99.90
7331;DHT22;3706;49.198;7.064;2024-01-30T00:47:40;0.40;99.90
7331;DHT22;3706;49.198;7.064;2024-01-30T00:50:08;0.50;99.90
7331;DHT22;3706;49.198;7.064;2024-01-30T00:52:35;0.50;99.90
7331;DHT22;3706;49.198;7.064;2024-01-30T00:55:03;0.60;99.90
7331;DHT22;3706;49.198;7.064;2024-01-30T00:57:30;0.60;99.90
7331;DHT22;3706;49.198;7.064;2024-01-30T00:59:57;0.50;99.90
7331;DHT22;3706;49.198;7.064;2024-01-30T01:02:24;0.50;99.90
7331;DHT22;3706;49.198;7.064;2024-01-30T01:04:52;0.50;99.90
7331;DHT22;3706;49.198;7.064;2024-01-30T01:07:19;0.40;99.90
7331;DHT22;3706;49.198;7.064;2024-01-30T01:09:47;0.40;99.90
7331;DHT22;3706;49.198;7.064;2024-01-30T01:12:14;0.20;99.90
7331;DHT22;3706;49.198;7.064;2024-01-30T01:14:41;0.00;99.90
7331;DHT22;3706;49.198;7.064;2024-01-30T01:17:08;0.00;99.90
7331;DHT22;3706;49.198;7.064;2024-01-30T01:19:35;0.10;99.90
7331;DHT22;3706;49.198;7.064;2024-01-30T01:22:06;0.00;99.90
7331;DHT22;3706;49.198;7.064;2024-01-30T01:24:34;0.10;99.90
7331;DHT22;3706;49.198;7.064;2024-01-30T01:27:01;0.10;99.90
7331;DHT22;3706;49.198;7.064;2024-01-30T01:29:28;0.30;99.90
7331;DHT22;3706;49.198;7.064;2024-01-30T01:31:55;0.40;99.90
7331;DHT22;3706;49.198;7.064;2024-01-30T01:34:22;0.50;99.90
7331;DHT22;3706;49.198;7.064;2024-01-30T01:36:50;0.60;99.90
7331;DHT22;3706;49.198;7.064;2024-01-30T01:39:22;0.60;99.90
7331;DHT22;3706;49.198;7.064;2024-01-30T01:41:49;0.60;99.90
7331;DHT22;3706;49.198;7.064;2024-01-30T01:44:17;0.60;99.90
7331;DHT22;3706;49.198;7.064;2024-01-30T01:46:45;0.50;99.90
7331;DHT22;3706;49.198;7.064;2024-01-30T01:49:12;0.30;99.90
7331;DHT22;3706;49.198;7.064;2024-01-30T01:51:41;0.30;99.90
7331;DHT22;3706;49.198;7.064;2024-01-30T01:54:10;0.30;99.90
7331;DHT22;3706;49.198;7.064;2024-01-30T01:56:39;0.20;99.90
7331;DHT22;3706;49.198;7.064;2024-01-30T01:59:08;0.20;99.90
7331;DHT22;3706;49.198;7.064;2024-01-30T02:01:36;0.10;99.90
7331;DHT22;3706;49.198;7.064;2024-01-30T02:04:04;0.00;99.90
7331;DHT22;3706;49.198;7.064;2024-01-30T02:06:32;0.00;99.90
7331;DHT22;3706;49.198;7.064;2024-01-30T02:08:59;0.10;99.90
7331;DHT22;3706;49.198;7.064;2024-01-30T02:11:26;0.10;99.90
7331;DHT22;3706;49.198;7.064;2024-01-30T02:13:55;0.30;99.90
7331;DHT22;3706;49.198;7.064;2024-01-30T02:16:23;0.10;99.90
7331;DHT22;3706;49.198;7.064;2024-01-30T02:18:50;0.20;99.90
7331;DHT22;3706;49.198;7.064;2024-01-30T02:21:19;0.20;99.90
7331;DHT22;3706;49.198;7.064;2024-01-30T02:23:47;0.30;99.90
7331;DHT22;3706;49.198;7.064;2024-01-30T02:26:15;0.20;99.90
7331;DHT22;3706;49.198;7.064;2024-01-30T02:28:42;0.20;99.90
7331;DHT22;3706;49.198;7.064;2024-01-30T02:31:09;0.30;99.90
7331;DHT22;3706;49.198;7.064;2024-01-30T02:33:36;0.40;99.90
7331;DHT22;3706;49.198;7.064;2024-01-30T02:36:03;0.40;99.90
7331;DHT22;3706;49.198;7.064;2024-01-30T02:38:32;0.40;99.90
7331;DHT22;3706;49.198;7.064;2024-01-30T02:40:59;0.40;99.90
7331;DHT22;3706;49.198;7.064;2024-01-30T02:43:26;0.40;99.90
7331;DHT22;3706;49.198;7.064;2024-01-30T02:45:53;0.40;99.90
7331;DHT22;3706;49.198;7.064;2024-01-30T02:48:20;0.50;99.90
7331;DHT22;3706;49.198;7.064;2024-01-30T02:50:46;0.50;99.90
7331;DHT22;3706;49.198;7.064;2024-01-30T02:53:13;0.60;99.90
7331;DHT22;3706;49.198;7.064;2024-01-30T02:55:42;0.50;99.90
7331;DHT22;3706;49.198;7.064;2024-01-30T02:58:09;0.50;99.90
7331;DHT22;3706;49.198;7.064;2024-01-30T03:00:36;0.50;99.90
7331;DHT22;3706;49.198;7.064;2024-01-30T03:03:04;0.60;99.90
7331;DHT22;3706;49.198;7.064;2024-01-30T03:05:31;0.50;99.90
7331;DHT22;3706;49.198;7.064;2024-01-30T03:07:58;0.60;99.90
7331;DHT22;3706;49.198;7.064;2024-01-30T03:10:25;0.50;99.90
7331;DHT22;3706;49.198;7.064;2024-01-30T03:12:54;0.50;99.90
7331;DHT22;3706;49.198;7.064;2024-01-30T03:15:21;0.60;99.90
7331;DHT22;3706;49.198;7.064;2024-01-30T03:17:48;0.50;99.90
7331;DHT22;3706;49.198;7.064;2024-01-30T03:20:16;0.50;99.90
7331;DHT22;3706;49.198;7.064;2024-01-30T03:22:43;0.50;99.90
7331;DHT22;3706;49.198;7.064;2024-01-30T03:25:10;0.50;99.90
7331;DHT22;3706;49.198;7.064;2024-01-30T03:27:37;0.50;99.90
7331;DHT22;3706;49.198;7.064;2024-01-30T03:30:07;0.60;99.90
7331;DHT22;3706;49.198;7.064;2024-01-30T03:32:35;0.60;99.90
7331;DHT22;3706;49.198;7.064;2024-01-30T03:35:02;0.60;99.90
7331;DHT22;3706;49.198;7.064;2024-01-30T03:37:29;0.60;99.90
7331;DHT22;3706;49.198;7.064;2024-01-30T03:39:56;0.70;99.90
7331;DHT22;3706;49.198;7.064;2024-01-30T03:42:23;0.70;99.90
7331;DHT22;3706;49.198;7.064;2024-01-30T03:44:51;0.70;99.90
7331;DHT22;3706;49.198;7.064;2024-01-30T03:47:21;0.60;99.90
7331;DHT22;3706;49.198;7.064;2024-01-30T03:49:48;0.60;99.90
7331;DHT22;3706;49.198;7.064;2024-01-30T03:52:15;0.70;99.90
7331;DHT22;3706;49.198;7.064;2024-01-30T03:54:42;0.60;99.90
7331;DHT22;3706;49.198;7.064;2024-01-30T03:57:09;0.90;99.90
7331;DHT22;3706;49.198;7.064;2024-01-30T03:59:36;0.70;99.90
7331;DHT22;3706;49.198;7.064;2024-01-30T04:02:03;0.70;99.90
7331;DHT22;3706;49.198;7.064;2024-01-30T04:04:32;0.90;99.90
7331;DHT22;3706;49.198;7.064;2024-01-30T04:06:59;0.80;99.90
7331;DHT22;3706;49.198;7.064;2024-01-30T04:09:26;0.90;99.90
7331;DHT22;3706;49.198;7.064;2024-01-30T04:11:55;0.90;99.90
7331;DHT22;3706;49.198;7.064;2024-01-30T04:14:22;0.90;99.90
7331;DHT22;3706;49.198;7.064;2024-01-30T04:16:49;0.90;99.90
7331;DHT22;3706;49.198;7.064;2024-01-30T04:19:16;0.90;99.90
7331;DHT22;3706;49.198;7.064;2024-01-30T04:21:44;0.90;99.90
7331;DHT22;3706;49.198;7.064;2024-01-30T04:24:11;0.80;99.90
7331;DHT22;3706;49.198;7.064;2024-01-30T04:26:39;0.90;99.90
7331;DHT22;3706;49.198;7.064;2024-01-30T04:29:06;1.00;99.90
7331;DHT22;3706;49.198;7.064;2024-01-30T04:31:33;1.00;99.90
7331;DHT22;3706;49.198;7.064;2024-01-30T04:34:00;1.00;99.90
7331;DHT22;3706;49.198;7.064;2024-01-30T04:36:27;1.10;99.90
7331;DHT22;3706;49.198;7.064;2024-01-30T04:38:55;1.00;99.90
7331;DHT22;3706;49.198;7.064;2024-01-30T04:41:23;0.90;99.90
7331;DHT22;3706;49.198;7.064;2024-01-30T04:43:50;1.10;99.90
7331;DHT22;3706;49.198;7.064;2024-01-30T04:46:17;0.90;99.90
7331;DHT22;3706;49.198;7.064;2024-01-30T04:48:44;1.00;99.90
7331;DHT22;3706;49.198;7.064;2024-01-30T04:51:11;1.00;99.90
7331;DHT22;3706;49.198;7.064;2024-01-30T04:53:38;1.00;99.90
7331;DHT22;3706;49.198;7.064;2024-01-30T04:56:07;1.00;99.90
7331;DHT22;3706;49.198;7.064;2024-01-30T04:58:34;1.10;99.90
7331;DHT22;3706;49.198;7.064;2024-01-30T05:01:02;1.00;99.90
7331;DHT22;3706;49.198;7.064;2024-01-30T05:03:33;1.00;99.90
7331;DHT22;3706;49.198;7.064;2024-01-30T05:06:00;1.00;99.90
7331;DHT22;3706;49.198;7.064;2024-01-30T05:08:28;1.20;99.90
7331;DHT22;3706;49.198;7.064;2024-01-30T05:10:55;1.00;99.90
7331;DHT22;3706;49.198;7.064;2024-01-30T05:13:24;1.00;99.90
7331;DHT22;3706;49.198;7.064;2024-01-30T05:15:51;1.00;99.90
7331;DHT22;3706;49.198;7.064;2024-01-30T05:18:18;1.00;99.90
7331;DHT22;3706;49.198;7.064;2024-01-30T05:20:45;1.10;99.90
7331;DHT22;3706;49.198;7.064;2024-01-30T05:23:12;1.10;99.90
7331;DHT22;3706;49.198;7.064;2024-01-30T05:25:39;1.10;99.90
7331;DHT22;3706;49.198;7.064;2024-01-30T05:28:06;1.10;99.90
7331;DHT22;3706;49.198;7.064;2024-01-30T05:30:35;1.10;99.90
7331;DHT22;3706;49.198;7.064;2024-01-30T05:33:02;1.10;99.90
7331;DHT22;3706;49.198;7.064;2024-01-30T05:35:29;1.10;99.90
7331;DHT22;3706;49.198;7.064;2024-01-30T05:37:57;1.10;99.90
7331;DHT22;3706;49.198;7.064;2024-01-30T05:40:24;1.20;99.90
7331;DHT22;3706;49.198;7.064;2024-01-30T05:42:51;1.20;99.90
7331;DHT22;3706;49.198;7.064;2024-01-30T05:45:18;1.10;99.90
7331;DHT22;3706;49.198;7.064;2024-01-30T05:47:47;1.20;99.90
7331;DHT22;3706;49.198;7.064;2024-01-30T05:50:14;1.20;99.90
7331;DHT22;3706;49.198;7.064;2024-01-30T05:52:41;1.20;99.90
7331;DHT22;3706;49.198;7.064;2024-01-30T05:55:08;1.20;99.90
7331;DHT22;3706;49.198;7.064;2024-01-30T05:57:36;1.20;99.90
7331;DHT22;3706;49.198;7.064;2024-01-30T06:00:04;1.20;99.90
7331;DHT22;3706;49.198;7.064;2024-01-30T06:02:31;1.10;99.90
7331;DHT22;3706;49.198;7.064;2024-01-30T06:04:59;1.10;99.90
7331;DHT22;3706;49.198;7.064;2024-01-30T06:07:26;1.10;99.90
7331;DHT22;3706;49.198;7.064;2024-01-30T06:09:53;1.10;99.90
7331;DHT22;3706;49.198;7.064;2024-01-30T06:12:20;1.10;99.90
7331;DHT22;3706;49.198;7.064;2024-01-30T06:14:48;1.10;99.90
7331;DHT22;3706;49.198;7.064;2024-01-30T06:17:15;1.30;99.90
7331;DHT22;3706;49.198;7.064;2024-01-30T06:19:42;1.20;99.90
7331;DHT22;3706;49.198;7.064;2024-01-30T06:22:10;1.10;99.90
7331;DHT22;3706;49.198;7.064;2024-01-30T06:24:38;1.10;99.90
7331;DHT22;3706;49.198;7.064;2024-01-30T06:27:05;1.20;99.90
7331;DHT22;3706;49.198;7.064;2024-01-30T06:29:32;1.10;99.90
7331;DHT22;3706;49.198;7.064;2024-01-30T06:31:59;1.20;99.90
7331;DHT22;3706;49.198;7.064;2024-01-30T06:34:26;1.20;99.90
7331;DHT22;3706;49.198;7.064;2024-01-30T06:36:53;1.20;99.90
7331;DHT22;3706;49.198;7.064;2024-01-30T06:39:22;1.20;99.90
7331;DHT22;3706;49.198;7.064;2024-01-30T06:41:49;1.30;99.90
7331;DHT22;3706;49.198;7.064;2024-01-30T06:44:16;1.30;99.90
7331;DHT22;3706;49.198;7.064;2024-01-30T06:46:43;1.40;99.90
7331;DHT22;3706;49.198;7.064;2024-01-30T06:49:10;1.30;99.90
7331;DHT22;3706;49.198;7.064;2024-01-30T06:51:37;1.40;99.90
7331;DHT22;3706;49.198;7.064;2024-01-30T06:54:05;1.40;99.90
7331;DHT22;3706;49.198;7.064;2024-01-30T06:56:39;1.50;99.90
7331;DHT22;3706;49.198;7.064;2024-01-30T06:59:06;1.60;99.90
7331;DHT22;3706;49.198;7.064;2024-01-30T07:01:34;1.60;99.90
7331;DHT22;3706;49.198;7.064;2024-01-30T07:04:01;1.60;99.90
7331;DHT22;3706;49.198;7.064;2024-01-30T07:06:28;1.70;99.90
7331;DHT22;3706;49.198;7.064;2024-01-30T07:08:55;1.70;99.90
7331;DHT22;3706;49.198;7.064;2024-01-30T07:11:22;1.70;99.90
7331;DHT22;3706;49.198;7.064;2024-01-30T07:13:52;1.80;99.90
7331;DHT22;3706;49.198;7.064;2024-01-30T07:16:19;1.80;99.90
7331;DHT22;3706;49.198;7.064;2024-01-30T07:18:46;1.90;99.90
7331;DHT22;3706;49.198;7.064;2024-01-30T07:21:13;1.90;99.90
7331;DHT22;3706;49.198;7.064;2024-01-30T07:23:40;2.00;99.90
7331;DHT22;3706;49.198;7.064;2024-01-30T07:26:07;2.00;99.90
7331;DHT22;3706;49.198;7.064;2024-01-30T07:28:35;2.20;99.90
7331;DHT22;3706;49.198;7.064;2024-01-30T07:31:04;2.20;99.90
7331;DHT22;3706;49.198;7.064;2024-01-30T07:33:32;2.20;99.90
7331;DHT22;3706;49.198;7.064;2024-01-30T07:35:59;2.30;99.90
7331;DHT22;3706;49.198;7.064;2024-01-30T07:38:26;2.20;99.90
7331;DHT22;3706;49.198;7.064;2024-01-30T07:40:53;2.30;99.90
7331;DHT22;3706;49.198;7.064;2024-01-30T07:43:20;2.30;99.90
7331;DHT22;3706;49.198;7.064;2024-01-30T07:45:48;2.30;99.90
7331;DHT22;3706;49.198;7.064;2024-01-30T07:48:17;2.50;99.90
7331;DHT22;3706;49.198;7.064;2024-01-30T07:50:44;2.40;99.90
7331;DHT22;3706;49.198;7.064;2024-01-30T07:53:11;2.40;99.90
7331;DHT22;3706;49.198;7.064;2024-01-30T07:55:39;2.60;99.90
7331;DHT22;3706;49.198;7.064;2024-01-30T07:58:06;2.60;99.90
7331;DHT22;3706;49.198;7.064;2024-01-30T08:00:33;2.70;99.90
7331;DHT22;3706;49.198;7.064;2024-01-30T08:03:00;2.80;99.90
7331;DHT22;3706;49.198;7.064;2024-01-30T08:05:28;2.90;99.90
7331;DHT22;3706;49.198;7.064;2024-01-30T08:07:55;3.00;99.90
7331;DHT22;3706;49.198;7.064;2024-01-30T08:10:22;3.00;99.90
7331;DHT22;3706;49.198;7.064;2024-01-30T08:12:49;3.00;99.90
7331;DHT22;3706;49.198;7.064;2024-01-30T08:15:17;3.20;99.90
7331;DHT22;3706;49.198;7.064;2024-01-30T08:17:44;3.30;99.90
7331;DHT22;3706;49.198;7.064;2024-01-30T08:20:11;3.40;99.90
7331;DHT22;3706;49.198;7.064;2024-01-30T08:22:40;3.60;99.90
7331;DHT22;3706;49.198;7.064;2024-01-30T08:25:08;3.80;99.90
7331;DHT22;3706;49.198;7.064;2024-01-30T08:27:35;4.10;99.90
7331;DHT22;3706;49.198;7.064;2024-01-30T08:30:05;4.30;99.90
7331;DHT22;3706;49.198;7.064;2024-01-30T08:32:32;4.60;99.90
7331;DHT22;3706;49.198;7.064;2024-01-30T08:34:59;4.90;99.90
7331;DHT22;3706;49.198;7.064;2024-01-30T08:37:29;5.20;99.90
7331;DHT22;3706;49.198;7.064;2024-01-30T08:39:57;5.50;99.90
7331;DHT22;3706;49.198;7.064;2024-01-30T08:42:25;5.80;99.90
7331;DHT22;3706;49.198;7.064;2024-01-30T08:44:52;6.00;99.90
7331;DHT22;3706;49.198;7.064;2024-01-30T08:47:19;6.20;99.90
7331;DHT22;3706;49.198;7.064;2024-01-30T08:49:47;6.30;99.90
7331;DHT22;3706;49.198;7.064;2024-01-30T08:52:14;6.50;99.90
7331;DHT22;3706;49.198;7.064;2024-01-30T08:54:41;6.80;99.90
7331;DHT22;3706;49.198;7.064;2024-01-30T08:57:13;7.20;99.90
7331;DHT22;3706;49.198;7.064;2024-01-30T08:59:40;7.40;99.90
7331;DHT22;3706;49.198;7.064;2024-01-30T09:02:10;7.60;99.90
7331;DHT22;3706;49.198;7.064;2024-01-30T09:04:38;7.70;99.90
7331;DHT22;3706;49.198;7.064;2024-01-30T09:07:08;7.90;99.90
7331;DHT22;3706;49.198;7.064;2024-01-30T09:09:37;8.10;99.90
7331;DHT22;3706;49.198;7.064;2024-01-30T09:12:05;8.30;99.90
7331;DHT22;3706;49.198;7.064;2024-01-30T09:14:37;8.50;99.90
7331;DHT22;3706;49.198;7.064;2024-01-30T09:17:04;8.70;99.90
7331;DHT22;3706;49.198;7.064;2024-01-30T09:19:31;8.90;99.90
7331;DHT22;3706;49.198;7.064;2024-01-30T09:21:58;9.00;99.90
7331;DHT22;3706;49.198;7.064;2024-01-30T09:24:26;9.20;99.90
7331;DHT22;3706;49.198;7.064;2024-01-30T09:26:53;9.20;99.90
7331;DHT22;3706;49.198;7.064;2024-01-30T09:29:20;9.30;99.90
7331;DHT22;3706;49.198;7.064;2024-01-30T09:31:49;9.40;99.90
7331;DHT22;3706;49.198;7.064;2024-01-30T09:34:16;9.40;99.90
7331;DHT22;3706;49.198;7.064;2024-01-30T09:36:43;9.50;99.90
7331;DHT22;3706;49.198;7.064;2024-01-30T09:39:10;9.50;99.90
7331;DHT22;3706;49.198;7.064;2024-01-30T09:41:42;9.40;99.90
7331;DHT22;3706;49.198;7.064;2024-01-30T09:44:11;9.40;99.90
7331;DHT22;3706;49.198;7.064;2024-01-30T09:46:39;9.30;99.90
7331;DHT22;3706;49.198;7.064;2024-01-30T09:49:08;9.30;99.90
7331;DHT22;3706;49.198;7.064;2024-01-30T09:51:35;9.30;99.90
7331;DHT22;3706;49.198;7.064;2024-01-30T09:54:03;9.30;99.90
7331;DHT22;3706;49.198;7.064;2024-01-30T09:56:30;9.30;99.90
7331;DHT22;3706;49.198;7.064;2024-01-30T09:58:57;9.30;99.90
7331;DHT22;3706;49.198;7.064;2024-01-30T10:01:25;9.30;99.90
7331;DHT22;3706;49.198;7.064;2024-01-30T10:03:54;9.30;99.90
7331;DHT22;3706;49.198;7.064;2024-01-30T10:06:23;9.30;99.90
7331;DHT22;3706;49.198;7.064;2024-01-30T10:08:51;9.20;99.90
7331;DHT22;3706;49.198;7.064;2024-01-30T10:11:17;9.20;99.90
7331;DHT22;3706;49.198;7.064;2024-01-30T10:13:44;9.20;99.90
7331;DHT22;3706;49.198;7.064;2024-01-30T10:16:14;9.20;99.90
7331;DHT22;3706;49.198;7.064;2024-01-30T10:18:42;9.20;99.90
7331;DHT22;3706;49.198;7.064;2024-01-30T10:21:09;9.30;99.90
7331;DHT22;3706;49.198;7.064;2024-01-30T10:23:38;9.30;99.90
7331;DHT22;3706;49.198;7.064;2024-01-30T10:26:06;9.30;99.90
7331;DHT22;3706;49.198;7.064;2024-01-30T10:28:34;9.40;99.90
7331;DHT22;3706;49.198;7.064;2024-01-30T10:31:01;9.50;99.90
7331;DHT22;3706;49.198;7.064;2024-01-30T10:33:29;9.70;99.90
7331;DHT22;3706;49.198;7.064;2024-01-30T10:36:00;9.80;99.90
7331;DHT22;3706;49.198;7.064;2024-01-30T10:38:29;9.90;99.90
7331;DHT22;3706;49.198;7.064;2024-01-30T10:40:59;10.00;99.90
7331;DHT22;3706;49.198;7.064;2024-01-30T10:43:31;10.10;99.90
7331;DHT22;3706;49.198;7.064;2024-01-30T10:46:03;10.20;99.90
7331;DHT22;3706;49.198;7.064;2024-01-30T10:48:32;10.20;99.90
7331;DHT22;3706;49.198;7.064;2024-01-30T10:51:05;10.30;99.90
7331;DHT22;3706;49.198;7.064;2024-01-30T10:53:33;10.50;99.90
7331;DHT22;3706;49.198;7.064;2024-01-30T10:56:03;10.60;99.90
7331;DHT22;3706;49.198;7.064;2024-01-30T10:58:31;10.70;99.90
7331;DHT22;3706;49.198;7.064;2024-01-30T11:00:58;10.80;99.90
7331;DHT22;3706;49.198;7.064;2024-01-30T11:03:26;10.80;99.90
7331;DHT22;3706;49.198;7.064;2024-01-30T11:06:04;10.80;99.90
7331;DHT22;3706;49.198;7.064;2024-01-30T11:08:32;10.80;99.90
7331;DHT22;3706;49.198;7.064;2024-01-30T11:11:00;10.70;99.90
7331;DHT22;3706;49.198;7.064;2024-01-30T11:13:29;10.70;99.90
7331;DHT22;3706;49.198;7.064;2024-01-30T11:16:00;10.70;99.90
7331;DHT22;3706;49.198;7.064;2024-01-30T11:18:30;10.60;99.90
7331;DHT22;3706;49.198;7.064;2024-01-30T11:20:57;10.70;99.90
7331;DHT22;3706;49.198;7.064;2024-01-30T11:23:26;10.80;99.90
7331;DHT22;3706;49.198;7.064;2024-01-30T11:25:54;10.90;99.90
7331;DHT22;3706;49.198;7.064;2024-01-30T11:28:22;11.00;99.90
7331;DHT22;3706;49.198;7.064;2024-01-30T11:30:50;11.20;99.90
7331;DHT22;3706;49.198;7.064;2024-01-30T11:33:28;11.40;99.90
7331;DHT22;3706;49.198;7.064;2024-01-30T11:35:57;11.60;99.90
7331;DHT22;3706;49.198;7.064;2024-01-30T11:38:26;11.80;99.90
7331;DHT22;3706;49.198;7.064;2024-01-30T11:40:55;11.90;99.90
7331;DHT22;3706;49.198;7.064;2024-01-30T11:43:23;11.90;99.90
7331;DHT22;3706;49.198;7.064;2024-01-30T11:45:51;12.00;99.90
7331;DHT22;3706;49.198;7.064;2024-01-30T11:48:19;12.00;99.90
7331;DHT22;3706;49.198;7.064;2024-01-30T11:50:46;12.10;99.90
7331;DHT22;3706;49.198;7.064;2024-01-30T11:53:13;12.20;99.90
7331;DHT22;3706;49.198;7.064;2024-01-30T11:55:41;12.40;99.90
7331;DHT22;3706;49.198;7.064;2024-01-30T11:58:08;12.50;99.90
7331;DHT22;3706;49.198;7.064;2024-01-30T12:00:35;12.70;99.90
7331;DHT22;3706;49.198;7.064;2024-01-30T12:03:04;12.80;99.90
7331;DHT22;3706;49.198;7.064;2024-01-30T12:05:32;12.90;99.90
7331;DHT22;3706;49.198;7.064;2024-01-30T12:07:59;12.90;99.90
7331;DHT22;3706;49.198;7.064;2024-01-30T12:10:27;13.00;99.90
7331;DHT22;3706;49.198;7.064;2024-01-30T12:12:54;12.90;99.90
7331;DHT22;3706;49.198;7.064;2024-01-30T12:15:22;12.90;99.90
7331;DHT22;3706;49.198;7.064;2024-01-30T12:17:49;12.90;99.90
7331;DHT22;3706;49.198;7.064;2024-01-30T12:20:19;12.80;99.90
7331;DHT22;3706;49.198;7.064;2024-01-30T12:22:48;12.80;99.90
7331;DHT22;3706;49.198;7.064;2024-01-30T12:25:17;12.80;99.90
7331;DHT22;3706;49.198;7.064;2024-01-30T12:27:46;12.80;99.90
7331;DHT22;3706;49.198;7.064;2024-01-30T12:30:16;12.90;99.90
7331;DHT22;3706;49.198;7.064;2024-01-30T12:32:45;13.10;99.90
7331;DHT22;3706;49.198;7.064;2024-01-30T12:35:13;13.10;99.90
7331;DHT22;3706;49.198;7.064;2024-01-30T12:37:43;13.20;99.90
7331;DHT22;3706;49.198;7.064;2024-01-30T12:40:11;13.40;99.90
7331;DHT22;3706;49.198;7.064;2024-01-30T12:42:40;13.60;99.90
7331;DHT22;3706;49.198;7.064;2024-01-30T12:45:08;13.70;99.90
7331;DHT22;3706;49.198;7.064;2024-01-30T12:47:36;13.70;99.90
7331;DHT22;3706;49.198;7.064;2024-01-30T12:50:03;13.60;99.90
7331;DHT22;3706;49.198;7.064;2024-01-30T12:52:30;13.60;99.90
7331;DHT22;3706;49.198;7.064;2024-01-30T12:54:59;13.50;99.90
7331;DHT22;3706;49.198;7.064;2024-01-30T12:57:26;13.40;99.90
7331;DHT22;3706;49.198;7.064;2024-01-30T12:59:53;13.30;99.90
7331;DHT22;3706;49.198;7.064;2024-01-30T13:02:20;13.20;99.90
7331;DHT22;3706;49.198;7.064;2024-01-30T13:04:48;13.10;99.90
7331;DHT22;3706;49.198;7.064;2024-01-30T13:07:15;13.00;99.90
7331;DHT22;3706;49.198;7.064;2024-01-30T13:09:42;12.80;99.90
7331;DHT22;3706;49.198;7.064;2024-01-30T13:12:11;12.80;99.90
7331;DHT22;3706;49.198;7.064;2024-01-30T13:14:38;12.70;99.90
7331;DHT22;3706;49.198;7.064;2024-01-30T13:17:05;12.60;99.90
7331;DHT22;3706;49.198;7.064;2024-01-30T13:19:32;12.50;99.90
7331;DHT22;3706;49.198;7.064;2024-01-30T13:21:59;12.40;99.90
7331;DHT22;3706;49.198;7.064;2024-01-30T13:24:26;12.40;99.90
7331;DHT22;3706;49.198;7.064;2024-01-30T13:26:53;12.30;99.90
7331;DHT22;3706;49.198;7.064;2024-01-30T13:29:22;12.20;99.90
7331;DHT22;3706;49.198;7.064;2024-01-30T13:31:49;12.10;99.90
7331;DHT22;3706;49.198;7.064;2024-01-30T13:34:16;12.00;99.90
7331;DHT22;3706;49.198;7.064;2024-01-30T13:36:43;11.90;99.90
7331;DHT22;3706;49.198;7.064;2024-01-30T13:39:10;11.90;99.90
7331;DHT22;3706;49.198;7.064;2024-01-30T13:41:38;11.70;99.90
7331;DHT22;3706;49.198;7.064;2024-01-30T13:44:05;11.70;99.90
7331;DHT22;3706;49.198;7.064;2024-01-30T13:46:34;11.50;99.90
7331;DHT22;3706;49.198;7.064;2024-01-30T13:49:01;11.40;99.90
7331;DHT22;3706;49.198;7.064;2024-01-30T13:51:28;11.40;99.90
7331;DHT22;3706;49.198;7.064;2024-01-30T13:53:55;11.30;99.90
7331;DHT22;3706;49.198;7.064;2024-01-30T13:56:22;11.30;99.90
7331;DHT22;3706;49.198;7.064;2024-01-30T13:58:50;11.30;99.90
7331;DHT22;3706;49.198;7.064;2024-01-30T14:01:17;11.20;99.90
7331;DHT22;3706;49.198;7.064;2024-01-30T14:03:46;11.20;99.90
7331;DHT22;3706;49.198;7.064;2024-01-30T14:06:13;11.10;99.90
7331;DHT22;3706;49.198;7.064;2024-01-30T14:08:40;11.10;99.90
7331;DHT22;3706;49.198;7.064;2024-01-30T14:11:07;11.10;99.90
7331;DHT22;3706;49.198;7.064;2024-01-30T14:13:35;11.00;99.90
7331;DHT22;3706;49.198;7.064;2024-01-30T14:16:02;11.00;99.90
7331;DHT22;3706;49.198;7.064;2024-01-30T14:18:29;11.00;99.90
7331;DHT22;3706;49.198;7.064;2024-01-30T14:20:58;10.90;99.90
7331;DHT22;3706;49.198;7.064;2024-01-30T14:23:25;10.90;99.90
7331;DHT22;3706;49.198;7.064;2024-01-30T14:25:52;10.90;99.90
7331;DHT22;3706;49.198;7.064;2024-01-30T14:28:19;10.90;99.90
7331;DHT22;3706;49.198;7.064;2024-01-30T14:30:49;10.90;99.90
7331;DHT22;3706;49.198;7.064;2024-01-30T14:33:16;10.90;99.90
7331;DHT22;3706;49.198;7.064;2024-01-30T14:35:43;10.90;99.90
7331;DHT22;3706;49.198;7.064;2024-01-30T14:38:12;10.90;99.90
7331;DHT22;3706;49.198;7.064;2024-01-30T14:40:39;10.90;99.90
7331;DHT22;3706;49.198;7.064;2024-01-30T14:43:06;10.90;99.90
7331;DHT22;3706;49.198;7.064;2024-01-30T14:45:33;10.90;99.90
7331;DHT22;3706;49.198;7.064;2024-01-30T14:48:00;10.90;99.90
7331;DHT22;3706;49.198;7.064;2024-01-30T14:50:30;10.90;99.90
7331;DHT22;3706;49.198;7.064;2024-01-30T14:52:57;10.90;99.90
7331;DHT22;3706;49.198;7.064;2024-01-30T14:55:25;10.90;99.90
7331;DHT22;3706;49.198;7.064;2024-01-30T14:57:52;10.80;99.90
7331;DHT22;3706;49.198;7.064;2024-01-30T15:00:20;10.80;99.90
7331;DHT22;3706;49.198;7.064;2024-01-30T15:02:47;10.90;99.90
7331;DHT22;3706;49.198;7.064;2024-01-30T15:05:14;10.80;99.90
7331;DHT22;3706;49.198;7.064;2024-01-30T15:07:41;10.80;99.90
7331;DHT22;3706;49.198;7.064;2024-01-30T15:10:09;10.80;99.90
7331;DHT22;3706;49.198;7.064;2024-01-30T15:12:38;10.80;99.90
7331;DHT22;3706;49.198;7.064;2024-01-30T15:15:15;10.70;99.90
7331;DHT22;3706;49.198;7.064;2024-01-30T15:17:42;10.70;99.90
7331;DHT22;3706;49.198;7.064;2024-01-30T15:20:09;10.60;99.90
7331;DHT22;3706;49.198;7.064;2024-01-30T15:22:36;10.60;99.90
7331;DHT22;3706;49.198;7.064;2024-01-30T15:25:06;10.50;99.90
7331;DHT22;3706;49.198;7.064;2024-01-30T15:27:33;10.50;99.90
7331;DHT22;3706;49.198;7.064;2024-01-30T15:30:02;10.40;99.90
7331;DHT22;3706;49.198;7.064;2024-01-30T15:32:29;10.40;99.90
7331;DHT22;3706;49.198;7.064;2024-01-30T15:34:57;10.40;99.90
7331;DHT22;3706;49.198;7.064;2024-01-30T15:37:26;10.20;99.90
7331;DHT22;3706;49.198;7.064;2024-01-30T15:39:54;10.30;99.90
7331;DHT22;3706;49.198;7.064;2024-01-30T15:42:21;10.20;99.90
7331;DHT22;3706;49.198;7.064;2024-01-30T15:44:48;10.20;99.90
7331;DHT22;3706;49.198;7.064;2024-01-30T15:47:17;10.20;99.90
7331;DHT22;3706;49.198;7.064;2024-01-30T15:49:44;10.10;99.90
7331;DHT22;3706;49.198;7.064;2024-01-30T15:52:11;10.00;99.90
7331;DHT22;3706;49.198;7.064;2024-01-30T15:54:40;10.00;99.90
7331;DHT22;3706;49.198;7.064;2024-01-30T15:57:07;10.00;99.90
7331;DHT22;3706;49.198;7.064;2024-01-30T15:59:34;9.90;99.90
7331;DHT22;3706;49.198;7.064;2024-01-30T16:02:02;9.80;99.90
7331;DHT22;3706;49.198;7.064;2024-01-30T16:04:31;9.80;99.90
7331;DHT22;3706;49.198;7.064;2024-01-30T16:06:58;9.90;99.90
7331;DHT22;3706;49.198;7.064;2024-01-30T16:09:25;9.90;99.90
7331;DHT22;3706;49.198;7.064;2024-01-30T16:11:52;9.90;99.90
7331;DHT22;3706;49.198;7.064;2024-01-30T16:14:19;10.00;99.90